createdAt,value
2019-05-21T00:00:02.010Z,100.00
2019-05-21T00:02:30.437Z,100.00
2019-05-21T00:04:58.867Z,100.00
2019-05-21T00:07:27.307Z,100.00
2019-05-21T00:09:55.807Z,100.00
2019-05-21T00:12:24.301Z,100.00
2019-05-21T00:14:52.766Z,100.00
2019-05-21T00:17:21.194Z,100.00
2019-05-21T00:19:49.630Z,100.00
2019-05-21T00:22:18.061Z,100.00
2019-05-21T00:24:46.531Z,100.00
2019-05-21T00:27:15.037Z,100.00
2019-05-21T00:30:19.474Z,100.00
2019-05-21T00:33:24.107Z,100.00
2019-05-21T00:36:30.234Z,100.00
2019-05-21T00:39:34.914Z,100.00
2019-05-21T00:42:03.860Z,100.00
2019-05-21T00:44:35.337Z,100.00
2019-05-21T00:47:05.691Z,100.00
2019-05-21T00:49:34.186Z,100.00
2019-05-21T00:52:07.928Z,100.00
2019-05-21T00:54:32.918Z,100.00
2019-05-21T00:57:01.337Z,100.00
2019-05-21T00:59:29.784Z,100.00
2019-05-21T01:01:58.357Z,100.00
2019-05-21T01:04:26.777Z,100.00
2019-05-21T01:06:55.283Z,100.00
2019-05-21T01:09:23.746Z,100.00
2019-05-21T01:11:52.244Z,100.00
2019-05-21T01:14:20.761Z,100.00
2019-05-21T01:16:49.199Z,100.00
2019-05-21T01:19:17.618Z,100.00
2019-05-21T01:21:46.057Z,100.00
2019-05-21T01:24:14.508Z,100.00
2019-05-21T01:26:42.961Z,100.00
2019-05-21T01:29:11.486Z,100.00
2019-05-21T01:31:39.928Z,100.00
2019-05-21T01:34:11.285Z,100.00
2019-05-21T01:36:38.865Z,100.00
2019-05-21T01:39:07.290Z,100.00
2019-05-21T01:41:35.718Z,100.00
2019-05-21T01:44:04.297Z,100.00
2019-05-21T01:46:32.730Z,100.00
2019-05-21T01:49:01.163Z,100.00
2019-05-21T01:51:29.610Z,100.00
2019-05-21T01:53:58.054Z,100.00
2019-05-21T01:56:26.467Z,100.00
2019-05-21T01:58:54.909Z,100.00
2019-05-21T02:01:23.368Z,100.00
2019-05-21T02:03:51.801Z,100.00
2019-05-21T02:06:20.518Z,100.00
2019-05-21T02:08:48.953Z,100.00
2019-05-21T02:11:17.389Z,100.00
2019-05-21T02:13:45.899Z,100.00
2019-05-21T02:16:14.399Z,100.00
2019-05-21T02:18:42.892Z,100.00
2019-05-21T02:21:11.613Z,100.00
2019-05-21T02:23:40.025Z,100.00
2019-05-21T02:26:08.472Z,100.00
2019-05-21T02:28:36.899Z,100.00
2019-05-21T02:31:05.480Z,100.00
2019-05-21T02:33:33.900Z,100.00
2019-05-21T02:36:02.324Z,100.00
2019-05-21T02:38:30.746Z,100.00
2019-05-21T02:40:59.262Z,100.00
2019-05-21T02:43:27.802Z,100.00
2019-05-21T02:45:56.259Z,100.00
2019-05-21T02:48:24.706Z,100.00
2019-05-21T02:50:53.121Z,100.00
2019-05-21T02:53:21.567Z,100.00
2019-05-21T02:55:49.989Z,100.00
2019-05-21T02:58:18.440Z,100.00
2019-05-21T03:00:48.512Z,100.00
2019-05-21T03:03:18.570Z,100.00
2019-05-21T03:05:47.003Z,100.00
2019-05-21T03:08:15.623Z,100.00
2019-05-21T03:10:44.038Z,100.00
2019-05-21T03:13:12.545Z,100.00
2019-05-21T03:15:40.964Z,100.00
2019-05-21T03:18:09.371Z,100.00
2019-05-21T03:20:37.826Z,100.00
2019-05-21T03:23:06.341Z,100.00
2019-05-21T03:25:34.743Z,100.00
2019-05-21T03:28:03.202Z,100.00
2019-05-21T03:30:31.701Z,100.00
2019-05-21T03:33:00.199Z,100.00
2019-05-21T03:35:28.643Z,100.00
2019-05-21T03:37:57.081Z,100.00
2019-05-21T03:40:25.543Z,100.00
2019-05-21T03:42:54.260Z,100.00
2019-05-21T03:45:22.658Z,100.00
2019-05-21T03:47:51.181Z,100.00
2019-05-21T03:50:19.652Z,100.00
2019-05-21T03:52:48.085Z,100.00
2019-05-21T03:55:16.548Z,100.00
2019-05-21T03:57:44.976Z,100.00
2019-05-21T04:00:14.151Z,100.00
2019-05-21T04:02:42.602Z,100.00
2019-05-21T04:05:11.361Z,100.00
2019-05-21T04:07:39.885Z,100.00
2019-05-21T04:10:17.357Z,100.00
2019-05-21T04:12:47.621Z,100.00
2019-05-21T04:15:17.770Z,100.00
2019-05-21T04:18:02.892Z,100.00
2019-05-21T04:20:31.301Z,100.00
2019-05-21T04:22:59.822Z,100.00
2019-05-21T04:25:28.259Z,100.00
2019-05-21T04:27:56.669Z,100.00
2019-05-21T04:30:25.128Z,100.00
2019-05-21T04:32:53.544Z,100.00
2019-05-21T04:35:21.979Z,100.00
2019-05-21T04:37:50.567Z,100.00
2019-05-21T04:40:19.060Z,100.00
2019-05-21T04:42:47.546Z,100.00
2019-05-21T04:45:16.154Z,100.00
2019-05-21T04:47:44.585Z,100.00
2019-05-21T04:50:13.091Z,100.00
2019-05-21T04:52:41.544Z,100.00
2019-05-21T04:55:10.530Z,100.00
2019-05-21T04:57:39.004Z,100.00
2019-05-21T05:00:08.614Z,100.00
2019-05-21T05:02:36.984Z,100.00
2019-05-21T05:05:06.267Z,100.00
2019-05-21T05:07:34.767Z,100.00
2019-05-21T05:10:03.246Z,100.00
2019-05-21T05:12:31.701Z,100.00
2019-05-21T05:15:00.121Z,100.00
2019-05-21T05:17:28.877Z,100.00
2019-05-21T05:19:57.302Z,100.00
2019-05-21T05:22:25.750Z,100.00
2019-05-21T05:24:54.260Z,100.00
2019-05-21T05:27:22.642Z,100.00
2019-05-21T05:29:51.076Z,100.00
2019-05-21T05:32:19.492Z,100.00
2019-05-21T05:34:47.937Z,100.00
2019-05-21T05:37:16.389Z,100.00
2019-05-21T05:39:44.822Z,100.00
2019-05-21T05:42:13.268Z,100.00
2019-05-21T05:44:41.704Z,100.00
2019-05-21T05:47:10.146Z,100.00
2019-05-21T05:49:42.830Z,100.00
2019-05-21T05:52:11.286Z,100.00
2019-05-21T05:54:39.868Z,100.00
2019-05-21T05:57:08.343Z,100.00
2019-05-21T05:59:36.754Z,100.00
2019-05-21T06:02:05.363Z,100.00
2019-05-21T06:04:33.806Z,100.00
2019-05-21T06:07:02.332Z,100.00
2019-05-21T06:09:30.827Z,100.00
2019-05-21T06:11:59.315Z,100.00
2019-05-21T06:14:27.779Z,100.00
2019-05-21T06:16:56.256Z,100.00
2019-05-21T06:19:24.692Z,100.00
2019-05-21T06:21:53.207Z,100.00
2019-05-21T06:24:21.623Z,100.00
2019-05-21T06:26:50.194Z,100.00
2019-05-21T06:29:19.085Z,100.00
2019-05-21T06:31:47.530Z,100.00
2019-05-21T06:34:15.972Z,100.00
2019-05-21T06:36:44.407Z,100.00
2019-05-21T06:39:12.846Z,100.00
2019-05-21T06:41:41.294Z,100.00
2019-05-21T06:44:09.729Z,100.00
2019-05-21T06:46:38.166Z,100.00
2019-05-21T06:49:06.675Z,100.00
2019-05-21T06:51:35.159Z,100.00
2019-05-21T06:54:03.597Z,100.00
2019-05-21T06:56:32.046Z,100.00
2019-05-21T06:59:00.482Z,100.00
2019-05-21T07:01:29.744Z,100.00
2019-05-21T07:03:58.446Z,100.00
2019-05-21T07:06:26.926Z,100.00
2019-05-21T07:08:55.458Z,100.00
2019-05-21T07:11:23.892Z,100.00
2019-05-21T07:13:52.407Z,98.14
2019-05-21T07:16:20.835Z,96.52
2019-05-21T07:18:49.269Z,94.82
2019-05-21T07:21:17.713Z,92.81
2019-05-21T07:23:46.133Z,94.08
2019-05-21T07:26:14.592Z,92.40
2019-05-21T07:28:43.067Z,92.21
2019-05-21T07:31:11.683Z,88.33
2019-05-21T07:33:40.190Z,90.67
2019-05-21T07:36:08.703Z,92.26
2019-05-21T07:38:51.801Z,92.21
2019-05-21T07:41:07.430Z,92.35
2019-05-21T07:43:35.975Z,92.37
2019-05-21T07:46:04.446Z,92.20
2019-05-21T07:48:33.082Z,92.78
2019-05-21T07:51:01.489Z,91.79
2019-05-21T07:53:29.924Z,92.30
2019-05-21T07:55:58.360Z,91.42
2019-05-21T07:58:26.784Z,92.68
2019-05-21T08:00:55.232Z,92.87
2019-05-21T08:03:23.755Z,92.70
2019-05-21T08:05:52.168Z,92.43
2019-05-21T08:08:20.610Z,92.37
2019-05-21T08:10:49.029Z,92.63
2019-05-21T08:13:17.467Z,89.73
2019-05-21T08:15:45.918Z,88.98
2019-05-21T08:18:14.331Z,88.71
2019-05-21T08:20:42.770Z,90.76
2019-05-21T08:23:11.198Z,92.79
2019-05-21T08:25:39.610Z,93.97
2019-05-21T08:28:08.047Z,98.10
2019-05-21T08:30:36.573Z,99.32
2019-05-21T08:33:05.465Z,100.00
2019-05-21T08:35:33.964Z,100.00
2019-05-21T08:38:06.329Z,100.00
2019-05-21T08:40:32.631Z,100.00
2019-05-21T08:43:01.119Z,99.73
2019-05-21T08:45:29.614Z,99.73
2019-05-21T08:47:58.214Z,100.00
2019-05-21T08:50:26.669Z,100.00
2019-05-21T08:52:55.170Z,100.00
2019-05-21T08:55:23.624Z,100.00
2019-05-21T08:58:06.299Z,100.00
2019-05-21T09:00:22.941Z,99.70
2019-05-21T09:02:51.565Z,98.71
2019-05-21T09:05:20.555Z,97.67
2019-05-21T09:07:53.269Z,95.16
2019-05-21T09:10:19.395Z,95.16
2019-05-21T09:12:47.802Z,95.41
2019-05-21T09:15:16.654Z,95.48
2019-05-21T09:17:45.101Z,97.40
2019-05-21T09:20:14.920Z,97.40
2019-05-21T09:22:43.553Z,89.87
2019-05-21T09:25:12.911Z,89.44
2019-05-21T09:27:41.460Z,90.26
2019-05-21T09:30:11.545Z,93.85
2019-05-21T09:32:40.003Z,93.31
2019-05-21T09:35:11.030Z,91.26
2019-05-21T09:37:39.483Z,90.46
2019-05-21T09:40:09.938Z,90.20
2019-05-21T09:42:38.533Z,91.34
2019-05-21T09:45:08.551Z,91.57
2019-05-21T09:47:37.123Z,91.04
2019-05-21T09:50:11.222Z,91.29
2019-05-21T09:52:39.975Z,93.30
2019-05-21T09:55:09.422Z,95.24
2019-05-21T09:57:45.660Z,97.99
2019-05-21T10:00:35.931Z,98.33
2019-05-21T10:03:06.171Z,99.80
2019-05-21T10:05:34.610Z,100.00
2019-05-21T10:08:03.459Z,100.00
2019-05-21T10:10:31.945Z,99.70
2019-05-21T10:13:00.369Z,99.91
2019-05-21T10:15:28.785Z,98.05
2019-05-21T10:17:57.233Z,98.96
2019-05-21T10:20:25.660Z,99.81
2019-05-21T10:22:54.093Z,98.95
2019-05-21T10:25:22.550Z,97.05
2019-05-21T10:27:51.014Z,95.52
2019-05-21T10:30:19.664Z,96.63
2019-05-21T10:32:48.088Z,96.63
2019-05-21T10:35:16.505Z,99.20
2019-05-21T10:37:54.440Z,96.57
2019-05-21T10:40:15.737Z,97.61
2019-05-21T10:42:44.327Z,95.50
2019-05-21T10:45:13.574Z,93.50
2019-05-21T10:47:42.028Z,93.56
2019-05-21T10:50:10.619Z,96.52
2019-05-21T10:52:39.026Z,97.41
2019-05-21T10:55:09.229Z,98.11
2019-05-21T10:57:37.729Z,99.30
2019-05-21T11:00:10.435Z,98.57
2019-05-21T11:02:40.945Z,97.39
2019-05-21T11:05:11.756Z,98.02
2019-05-21T11:07:40.186Z,96.22
2019-05-21T11:10:10.215Z,96.19
2019-05-21T11:12:38.683Z,95.30
2019-05-21T11:15:08.600Z,94.95
2019-05-21T11:17:53.288Z,96.57
2019-05-21T11:20:07.779Z,97.54
2019-05-21T11:22:36.213Z,98.57
2019-05-21T11:25:06.995Z,98.42
2019-05-21T11:27:35.402Z,97.83
2019-05-21T11:30:05.717Z,96.98
2019-05-21T11:32:34.224Z,97.80
2019-05-21T11:35:02.718Z,98.55
2019-05-21T11:37:31.205Z,98.55
2019-05-21T11:39:59.645Z,98.59
2019-05-21T11:42:28.125Z,99.04
2019-05-21T11:44:56.582Z,99.04
2019-05-21T11:47:25.015Z,99.96
2019-05-21T11:49:53.459Z,97.99
2019-05-21T11:52:21.953Z,97.99
2019-05-21T11:54:50.383Z,98.13
2019-05-21T11:57:18.837Z,98.36
2019-05-21T11:59:47.344Z,98.87
2019-05-21T12:02:15.776Z,99.41
2019-05-21T12:04:44.214Z,100.00
2019-05-21T12:07:12.664Z,100.00
2019-05-21T12:09:41.137Z,100.00
2019-05-21T12:12:09.570Z,100.00
2019-05-21T12:14:37.995Z,100.00
2019-05-21T12:17:06.573Z,100.00
2019-05-21T12:19:35.116Z,100.00
2019-05-21T12:22:03.625Z,100.00
2019-05-21T12:24:32.221Z,100.00
2019-05-21T12:27:00.667Z,100.00
2019-05-21T12:29:29.202Z,100.00
2019-05-21T12:31:57.648Z,100.00
2019-05-21T12:34:26.063Z,100.00
2019-05-21T12:36:54.514Z,100.00
2019-05-21T12:39:22.918Z,100.00
2019-05-21T12:41:51.348Z,100.00
2019-05-21T12:44:19.791Z,100.00
2019-05-21T12:46:48.215Z,100.00
2019-05-21T12:49:16.728Z,100.00
2019-05-21T12:51:45.136Z,100.00
2019-05-21T12:54:13.575Z,100.00
2019-05-21T12:56:42.006Z,100.00
2019-05-21T12:59:10.429Z,100.00
2019-05-21T13:01:38.878Z,100.00
2019-05-21T13:04:07.373Z,100.00
2019-05-21T13:06:36.017Z,100.00
2019-05-21T13:09:08.150Z,100.00
2019-05-21T13:11:36.984Z,100.00
2019-05-21T13:14:05.747Z,100.00
2019-05-21T13:16:34.276Z,100.00
2019-05-21T13:19:02.738Z,100.00
2019-05-21T13:21:31.256Z,100.00
2019-05-21T13:23:59.674Z,100.00
2019-05-21T13:26:28.153Z,100.00
2019-05-21T13:28:56.650Z,100.00
2019-05-21T13:31:25.080Z,100.00
2019-05-21T13:33:53.509Z,100.00
2019-05-21T13:36:23.447Z,100.00
2019-05-21T13:38:51.865Z,100.00
2019-05-21T13:41:20.469Z,100.00
2019-05-21T13:43:48.903Z,100.00
2019-05-21T13:46:17.401Z,100.00
2019-05-21T13:48:47.016Z,100.00
2019-05-21T13:51:15.930Z,100.00
2019-05-21T13:53:44.357Z,100.00
2019-05-21T13:56:12.842Z,100.00
2019-05-21T13:58:41.269Z,100.00
2019-05-21T14:01:10.831Z,100.00
2019-05-21T14:03:39.258Z,100.00
2019-05-21T14:06:07.756Z,100.00
2019-05-21T14:08:36.244Z,100.00
2019-05-21T14:11:05.539Z,100.00
2019-05-21T14:13:34.024Z,100.00
2019-05-21T14:16:02.463Z,100.00
2019-05-21T14:18:30.970Z,100.00
2019-05-21T14:20:59.389Z,100.00
2019-05-21T14:23:27.815Z,100.00
2019-05-21T14:25:56.244Z,100.00
2019-05-21T14:28:24.670Z,100.00
2019-05-21T14:30:53.130Z,100.00
2019-05-21T14:33:21.571Z,100.00
2019-05-21T14:35:50.129Z,100.00
2019-05-21T14:38:18.570Z,100.00
2019-05-21T14:40:46.998Z,100.00
2019-05-21T14:43:15.612Z,100.00
2019-05-21T14:45:44.163Z,100.00
2019-05-21T14:48:12.623Z,100.00
2019-05-21T14:50:41.072Z,100.00
2019-05-21T14:53:09.579Z,100.00
2019-05-21T14:55:38.032Z,100.00
2019-05-21T14:58:06.568Z,100.00
2019-05-21T15:00:36.765Z,100.00
2019-05-21T15:03:06.404Z,100.00
2019-05-21T15:05:35.668Z,100.00
2019-05-21T15:08:05.359Z,100.00
2019-05-21T15:10:47.155Z,100.00
2019-05-21T15:13:06.129Z,100.00
2019-05-21T15:15:35.533Z,100.00
2019-05-21T15:18:04.050Z,100.00
2019-05-21T15:20:37.187Z,100.00
2019-05-21T15:23:05.742Z,100.00
2019-05-21T15:25:36.829Z,100.00
2019-05-21T15:28:05.300Z,100.00
2019-05-21T15:30:33.734Z,100.00
2019-05-21T15:33:02.192Z,100.00
2019-05-21T15:35:30.615Z,100.00
2019-05-21T15:37:59.422Z,100.00
2019-05-21T15:40:27.934Z,100.00
2019-05-21T15:42:56.360Z,100.00
2019-05-21T15:45:25.839Z,100.00
2019-05-21T15:47:54.264Z,100.00
2019-05-21T15:50:22.700Z,100.00
2019-05-21T15:52:51.178Z,100.00
2019-05-21T15:55:19.627Z,100.00
2019-05-21T15:57:48.067Z,100.00
2019-05-21T16:00:17.117Z,100.00
2019-05-21T16:02:45.535Z,100.00
2019-05-21T16:05:14.117Z,100.00
2019-05-21T16:07:42.543Z,100.00
2019-05-21T16:10:11.302Z,100.00
2019-05-21T16:12:39.749Z,100.00
2019-05-21T16:15:08.629Z,100.00
2019-05-21T16:17:37.057Z,100.00
2019-05-21T16:20:09.658Z,100.00
2019-05-21T16:22:38.100Z,100.00
2019-05-21T16:25:07.730Z,100.00
2019-05-21T16:27:36.104Z,100.00
2019-05-21T16:30:07.823Z,100.00
2019-05-21T16:32:36.409Z,100.00
2019-05-21T16:35:07.562Z,100.00
2019-05-21T16:37:36.184Z,100.00
2019-05-21T16:40:07.140Z,100.00
2019-05-21T16:42:35.657Z,100.00
2019-05-21T16:45:06.773Z,100.00
2019-05-21T16:47:44.329Z,100.00
2019-05-21T16:50:07.454Z,100.00
2019-05-21T16:52:35.886Z,100.00
2019-05-21T16:55:06.965Z,100.00
2019-05-21T16:57:35.393Z,100.00
2019-05-21T17:00:06.933Z,100.00
2019-05-21T17:02:35.368Z,100.00
2019-05-21T17:05:06.122Z,100.00
2019-05-21T17:07:34.559Z,100.00
2019-05-21T17:10:03.071Z,100.00
2019-05-21T17:12:31.585Z,100.00
2019-05-21T17:15:00.012Z,100.00
2019-05-21T17:17:28.469Z,100.00
2019-05-21T17:19:57.089Z,100.00
2019-05-21T17:22:25.525Z,100.00
2019-05-21T17:24:54.155Z,100.00
2019-05-21T17:27:22.616Z,100.00
2019-05-21T17:29:51.154Z,100.00
2019-05-21T17:32:19.585Z,100.00
2019-05-21T17:34:48.031Z,100.00
2019-05-21T17:37:16.541Z,100.00
2019-05-21T17:39:44.978Z,100.00
2019-05-21T17:42:15.809Z,100.00
2019-05-21T17:44:43.765Z,100.00
2019-05-21T17:47:12.199Z,100.00
2019-05-21T17:49:40.638Z,100.00
2019-05-21T17:52:09.222Z,100.00
2019-05-21T17:54:37.681Z,100.00
2019-05-21T17:57:09.126Z,100.00
2019-05-21T17:59:37.553Z,100.00
2019-05-21T18:02:08.266Z,100.00
2019-05-21T18:04:37.214Z,100.00
2019-05-21T18:07:06.218Z,100.00
2019-05-21T18:09:34.990Z,100.00
2019-05-21T18:12:05.049Z,100.00
2019-05-21T18:14:34.088Z,100.00
2019-05-21T18:17:04.250Z,100.00
2019-05-21T18:19:33.585Z,100.00
2019-05-21T18:22:02.116Z,100.00
2019-05-21T18:24:30.824Z,100.00
2019-05-21T18:26:59.323Z,100.00
2019-05-21T18:29:27.751Z,100.00
2019-05-21T18:31:56.191Z,100.00
2019-05-21T18:34:24.610Z,100.00
2019-05-21T18:36:53.521Z,100.00
2019-05-21T18:39:22.417Z,100.00
2019-05-21T18:41:50.969Z,100.00
2019-05-21T18:44:19.573Z,100.00
2019-05-21T18:46:48.053Z,100.00
2019-05-21T18:49:16.515Z,100.00
2019-05-21T18:51:44.943Z,100.00
2019-05-21T18:54:13.413Z,100.00
2019-05-21T18:56:41.877Z,100.00
2019-05-21T18:59:10.631Z,100.00
2019-05-21T19:01:39.056Z,100.00
2019-05-21T19:04:07.555Z,100.00
2019-05-21T19:06:36.061Z,100.00
2019-05-21T19:09:06.444Z,100.00
2019-05-21T19:11:36.432Z,100.00
2019-05-21T19:14:05.084Z,100.00
2019-05-21T19:16:33.556Z,100.00
2019-05-21T19:19:03.656Z,100.00
2019-05-21T19:21:32.154Z,100.00
2019-05-21T19:24:00.711Z,100.00
2019-05-21T19:26:29.195Z,100.00
2019-05-21T19:28:57.738Z,100.00
2019-05-21T19:31:26.259Z,100.00
2019-05-21T19:33:54.708Z,100.00
2019-05-21T19:36:23.166Z,100.00
2019-05-21T19:38:51.585Z,100.00
2019-05-21T19:41:20.178Z,100.00
2019-05-21T19:43:48.652Z,100.00
2019-05-21T19:46:17.141Z,100.00
2019-05-21T19:48:45.575Z,100.00
2019-05-21T19:51:14.205Z,100.00
2019-05-21T19:53:42.626Z,100.00
2019-05-21T19:56:11.132Z,100.00
2019-05-21T19:58:39.583Z,100.00
2019-05-21T20:01:09.727Z,100.00
2019-05-21T20:03:39.294Z,100.00
2019-05-21T20:06:09.716Z,100.00
2019-05-21T20:08:38.360Z,100.00
2019-05-21T20:11:07.545Z,100.00
2019-05-21T20:13:35.955Z,100.00
2019-05-21T20:16:06.100Z,100.00
2019-05-21T20:18:34.808Z,100.00
2019-05-21T20:21:04.751Z,100.00
2019-05-21T20:23:33.749Z,100.00
2019-05-21T20:26:03.005Z,100.00
2019-05-21T20:28:31.799Z,100.00
2019-05-21T20:31:00.789Z,100.00
2019-05-21T20:33:31.233Z,100.00
2019-05-21T20:36:00.625Z,100.00
2019-05-21T20:38:29.963Z,100.00
2019-05-21T20:40:59.398Z,100.00
2019-05-21T20:43:28.071Z,100.00
2019-05-21T20:45:56.831Z,100.00
2019-05-21T20:48:27.009Z,100.00
2019-05-21T20:51:02.737Z,100.00
2019-05-21T20:53:31.569Z,100.00
2019-05-21T20:56:00.150Z,100.00
2019-05-21T20:58:29.150Z,100.00
2019-05-21T21:01:02.107Z,100.00
2019-05-21T21:03:31.658Z,100.00
2019-05-21T21:06:00.733Z,100.00
2019-05-21T21:08:31.334Z,100.00
2019-05-21T21:11:01.266Z,100.00
2019-05-21T21:13:29.875Z,100.00
2019-05-21T21:15:58.660Z,100.00
2019-05-21T21:18:28.525Z,100.00
2019-05-21T21:20:57.028Z,100.00
2019-05-21T21:23:27.082Z,100.00
2019-05-21T21:25:56.361Z,100.00
2019-05-21T21:28:24.973Z,100.00
2019-05-21T21:30:54.862Z,100.00
2019-05-21T21:33:23.714Z,100.00
2019-05-21T21:35:53.017Z,100.00
2019-05-21T21:38:23.791Z,100.00
2019-05-21T21:40:52.278Z,100.00
2019-05-21T21:43:20.793Z,100.00
2019-05-21T21:45:49.280Z,100.00
2019-05-21T21:48:17.742Z,100.00
2019-05-21T21:50:46.516Z,100.00
2019-05-21T21:53:14.967Z,100.00
2019-05-21T21:55:43.397Z,100.00
2019-05-21T21:58:11.835Z,100.00
2019-05-21T22:00:56.889Z,100.00
2019-05-21T22:03:26.948Z,100.00
2019-05-21T22:05:55.611Z,100.00
2019-05-21T22:08:24.118Z,100.00
2019-05-21T22:10:52.634Z,100.00
2019-05-21T22:13:21.058Z,100.00
2019-05-21T22:15:49.591Z,100.00
2019-05-21T22:18:19.071Z,100.00
2019-05-21T22:20:48.225Z,100.00
2019-05-21T22:23:17.677Z,100.00
2019-05-21T22:25:47.031Z,100.00
2019-05-21T22:28:15.528Z,100.00
2019-05-21T22:30:45.006Z,100.00
2019-05-21T22:33:14.268Z,100.00
2019-05-21T22:35:43.061Z,100.00
2019-05-21T22:38:11.942Z,100.00
2019-05-21T22:40:40.436Z,100.00
2019-05-21T22:43:08.970Z,100.00
2019-05-21T22:45:37.454Z,100.00
2019-05-21T22:48:05.971Z,100.00
2019-05-21T22:50:35.453Z,100.00
2019-05-21T22:53:04.031Z,100.00
2019-05-21T22:55:33.813Z,100.00
2019-05-21T22:58:02.334Z,100.00
2019-05-21T23:00:32.655Z,100.00
2019-05-21T23:03:02.281Z,100.00
2019-05-21T23:05:30.798Z,100.00
2019-05-21T23:08:00.510Z,100.00
2019-05-21T23:10:29.098Z,100.00
2019-05-21T23:12:57.542Z,100.00
2019-05-21T23:15:25.960Z,100.00
2019-05-21T23:17:55.364Z,100.00
2019-05-21T23:20:25.441Z,100.00
2019-05-21T23:22:55.634Z,100.00
2019-05-21T23:25:24.085Z,100.00
2019-05-21T23:27:53.080Z,100.00
2019-05-21T23:30:22.102Z,100.00
2019-05-21T23:32:50.928Z,100.00
2019-05-21T23:35:19.715Z,100.00
2019-05-21T23:37:51.571Z,100.00
2019-05-21T23:40:22.042Z,100.00
2019-05-21T23:42:50.481Z,100.00
2019-05-21T23:45:20.062Z,100.00
2019-05-21T23:47:49.188Z,100.00
2019-05-21T23:50:19.806Z,100.00
2019-05-21T23:52:49.473Z,100.00
2019-05-21T23:55:17.993Z,100.00
2019-05-21T23:57:48.474Z,100.00
